sensor_id;sensor_type;location;lat;lon;timestamp;temperature;humidity
30300;DHT22;17110;52.602;12.998;2022-08-01T00:00:33;19.90;99.90
30300;DHT22;17110;52.602;12.998;2022-08-01T00:02:59;19.80;99.90
30300;DHT22;17110;52.602;12.998;2022-08-01T00:05:24;19.70;99.90
30300;DHT22;17110;52.602;12.998;2022-08-01T00:07:50;19.70;99.90
30300;DHT22;17110;52.602;12.998;2022-08-01T00:10:17;19.60;99.90
30300;DHT22;17110;52.602;12.998;2022-08-01T00:12:43;19.50;99.90
30300;DHT22;17110;52.602;12.998;2022-08-01T00:15:11;19.50;99.90
30300;DHT22;17110;52.602;12.998;2022-08-01T00:17:37;19.40;99.90
30300;DHT22;17110;52.602;12.998;2022-08-01T00:20:05;19.40;99.90
30300;DHT22;17110;52.602;12.998;2022-08-01T00:22:32;19.30;99.90
30300;DHT22;17110;52.602;12.998;2022-08-01T00:24:58;19.30;99.90
30300;DHT22;17110;52.602;12.998;2022-08-01T00:27:23;19.30;99.90
30300;DHT22;17110;52.602;12.998;2022-08-01T00:29:49;19.30;99.90
30300;DHT22;17110;52.602;12.998;2022-08-01T00:32:15;19.30;99.90
30300;DHT22;17110;52.602;12.998;2022-08-01T00:34:41;19.30;99.90
30300;DHT22;17110;52.602;12.998;2022-08-01T00:37:06;19.30;99.90
30300;DHT22;17110;52.602;12.998;2022-08-01T00:39:32;19.30;99.90
30300;DHT22;17110;52.602;12.998;2022-08-01T00:41:59;19.30;99.90
30300;DHT22;17110;52.602;12.998;2022-08-01T00:44:25;19.30;99.90
30300;DHT22;17110;52.602;12.998;2022-08-01T00:46:51;19.30;99.90
30300;DHT22;17110;52.602;12.998;2022-08-01T00:49:16;19.30;99.90
30300;DHT22;17110;52.602;12.998;2022-08-01T00:51:42;19.30;99.90
30300;DHT22;17110;52.602;12.998;2022-08-01T00:54:08;19.30;99.90
30300;DHT22;17110;52.602;12.998;2022-08-01T00:56:34;19.30;99.90
30300;DHT22;17110;52.602;12.998;2022-08-01T00:59:00;19.20;99.90
30300;DHT22;17110;52.602;12.998;2022-08-01T01:01:26;19.20;99.90
30300;DHT22;17110;52.602;12.998;2022-08-01T01:03:52;19.20;99.90
30300;DHT22;17110;52.602;12.998;2022-08-01T01:12:01;19.30;99.90
30300;DHT22;17110;52.602;12.998;2022-08-01T01:15:17;19.30;99.90
30300;DHT22;17110;52.602;12.998;2022-08-01T01:18:09;19.30;99.90
30300;DHT22;17110;52.602;12.998;2022-08-01T01:20:40;19.30;99.90
30300;DHT22;17110;52.602;12.998;2022-08-01T01:25:54;19.10;99.90
30300;DHT22;17110;52.602;12.998;2022-08-01T01:28:35;19.20;99.90
30300;DHT22;17110;52.602;12.998;2022-08-01T01:31:08;19.10;99.90
30300;DHT22;17110;52.602;12.998;2022-08-01T01:33:37;19.10;99.90
30300;DHT22;17110;52.602;12.998;2022-08-01T01:36:08;19.10;99.90
30300;DHT22;17110;52.602;12.998;2022-08-01T01:38:38;19.10;99.90
30300;DHT22;17110;52.602;12.998;2022-08-01T01:41:08;19.10;99.90
30300;DHT22;17110;52.602;12.998;2022-08-01T01:43:36;19.10;99.90
30300;DHT22;17110;52.602;12.998;2022-08-01T01:46:03;19.10;99.90
30300;DHT22;17110;52.602;12.998;2022-08-01T01:48:31;19.00;99.90
30300;DHT22;17110;52.602;12.998;2022-08-01T01:50:59;18.90;99.90
30300;DHT22;17110;52.602;12.998;2022-08-01T01:53:27;18.90;99.90
30300;DHT22;17110;52.602;12.998;2022-08-01T01:55:55;18.80;99.90
30300;DHT22;17110;52.602;12.998;2022-08-01T01:58:27;18.90;99.90
30300;DHT22;17110;52.602;12.998;2022-08-01T02:00:55;18.90;99.90
30300;DHT22;17110;52.602;12.998;2022-08-01T02:03:24;19.00;99.90
30300;DHT22;17110;52.602;12.998;2022-08-01T02:05:53;19.00;99.90
30300;DHT22;17110;52.602;12.998;2022-08-01T02:08:20;19.00;99.90
30300;DHT22;17110;52.602;12.998;2022-08-01T02:10:46;19.00;99.90
30300;DHT22;17110;52.602;12.998;2022-08-01T02:13:32;19.10;99.90
30300;DHT22;17110;52.602;12.998;2022-08-01T02:16:00;19.00;99.90
30300;DHT22;17110;52.602;12.998;2022-08-01T02:18:27;19.10;99.90
30300;DHT22;17110;52.602;12.998;2022-08-01T02:20:54;19.10;99.90
30300;DHT22;17110;52.602;12.998;2022-08-01T02:23:22;19.10;99.90
30300;DHT22;17110;52.602;12.998;2022-08-01T02:25:52;19.10;99.90
30300;DHT22;17110;52.602;12.998;2022-08-01T02:28:35;19.20;99.90
30300;DHT22;17110;52.602;12.998;2022-08-01T02:31:04;19.20;99.90
30300;DHT22;17110;52.602;12.998;2022-08-01T02:33:40;19.30;99.90
30300;DHT22;17110;52.602;12.998;2022-08-01T02:36:07;19.30;99.90
30300;DHT22;17110;52.602;12.998;2022-08-01T02:38:41;19.30;99.90
30300;DHT22;17110;52.602;12.998;2022-08-01T02:41:09;19.40;99.90
30300;DHT22;17110;52.602;12.998;2022-08-01T02:43:43;19.40;99.90
30300;DHT22;17110;52.602;12.998;2022-08-01T02:46:17;19.40;99.90
30300;DHT22;17110;52.602;12.998;2022-08-01T02:48:45;19.40;99.90
30300;DHT22;17110;52.602;12.998;2022-08-01T02:51:12;19.50;99.90
30300;DHT22;17110;52.602;12.998;2022-08-01T02:53:40;19.50;99.90
30300;DHT22;17110;52.602;12.998;2022-08-01T02:56:08;19.50;99.90
30300;DHT22;17110;52.602;12.998;2022-08-01T02:58:34;19.50;99.90
30300;DHT22;17110;52.602;12.998;2022-08-01T03:01:02;19.50;99.90
30300;DHT22;17110;52.602;12.998;2022-08-01T03:03:29;19.50;99.90
30300;DHT22;17110;52.602;12.998;2022-08-01T03:05:56;19.50;99.90
30300;DHT22;17110;52.602;12.998;2022-08-01T03:08:23;19.40;99.90
30300;DHT22;17110;52.602;12.998;2022-08-01T03:10:51;19.40;99.90
30300;DHT22;17110;52.602;12.998;2022-08-01T03:13:20;19.50;99.90
30300;DHT22;17110;52.602;12.998;2022-08-01T03:15:47;19.50;99.90
30300;DHT22;17110;52.602;12.998;2022-08-01T03:18:14;19.50;99.90
30300;DHT22;17110;52.602;12.998;2022-08-01T03:20:41;19.60;99.90
30300;DHT22;17110;52.602;12.998;2022-08-01T03:23:10;19.60;99.90
30300;DHT22;17110;52.602;12.998;2022-08-01T03:25:38;19.60;99.90
30300;DHT22;17110;52.602;12.998;2022-08-01T03:28:06;19.60;99.90
30300;DHT22;17110;52.602;12.998;2022-08-01T03:30:33;19.60;99.90
30300;DHT22;17110;52.602;12.998;2022-08-01T03:33:01;19.60;99.90
30300;DHT22;17110;52.602;12.998;2022-08-01T03:35:32;19.70;99.90
30300;DHT22;17110;52.602;12.998;2022-08-01T03:38:00;19.60;99.90
30300;DHT22;17110;52.602;12.998;2022-08-01T03:40:49;19.60;99.90
30300;DHT22;17110;52.602;12.998;2022-08-01T03:46:00;19.60;99.90
30300;DHT22;17110;52.602;12.998;2022-08-01T03:48:29;19.60;99.90
30300;DHT22;17110;52.602;12.998;2022-08-01T03:50:58;19.70;99.90
30300;DHT22;17110;52.602;12.998;2022-08-01T03:53:27;19.70;99.90
30300;DHT22;17110;52.602;12.998;2022-08-01T03:55:55;19.60;99.90
30300;DHT22;17110;52.602;12.998;2022-08-01T03:58:24;19.60;99.90
30300;DHT22;17110;52.602;12.998;2022-08-01T04:00:50;19.60;99.90
30300;DHT22;17110;52.602;12.998;2022-08-01T04:03:16;19.60;99.90
30300;DHT22;17110;52.602;12.998;2022-08-01T04:05:42;19.60;99.90
30300;DHT22;17110;52.602;12.998;2022-08-01T04:08:08;19.60;99.90
30300;DHT22;17110;52.602;12.998;2022-08-01T04:10:34;19.70;99.90
30300;DHT22;17110;52.602;12.998;2022-08-01T04:13:00;19.70;99.90
30300;DHT22;17110;52.602;12.998;2022-08-01T04:15:26;19.70;99.90
30300;DHT22;17110;52.602;12.998;2022-08-01T04:17:51;19.70;99.90
30300;DHT22;17110;52.602;12.998;2022-08-01T04:20:19;19.70;99.90
30300;DHT22;17110;52.602;12.998;2022-08-01T04:22:45;19.70;99.90
30300;DHT22;17110;52.602;12.998;2022-08-01T04:25:37;19.80;99.90
30300;DHT22;17110;52.602;12.998;2022-08-01T04:28:05;19.80;99.90
30300;DHT22;17110;52.602;12.998;2022-08-01T04:30:34;19.80;99.90
30300;DHT22;17110;52.602;12.998;2022-08-01T04:33:04;19.90;99.90
30300;DHT22;17110;52.602;12.998;2022-08-01T04:35:32;19.90;99.90
30300;DHT22;17110;52.602;12.998;2022-08-01T04:37:59;19.90;99.90
30300;DHT22;17110;52.602;12.998;2022-08-01T04:40:28;19.90;99.90
30300;DHT22;17110;52.602;12.998;2022-08-01T04:42:54;19.90;99.90
30300;DHT22;17110;52.602;12.998;2022-08-01T04:45:21;19.90;99.90
30300;DHT22;17110;52.602;12.998;2022-08-01T04:47:47;19.90;99.90
30300;DHT22;17110;52.602;12.998;2022-08-01T04:50:13;19.90;99.90
30300;DHT22;17110;52.602;12.998;2022-08-01T04:52:39;19.90;99.90
30300;DHT22;17110;52.602;12.998;2022-08-01T04:55:07;20.00;99.90
30300;DHT22;17110;52.602;12.998;2022-08-01T04:57:36;20.00;99.90
30300;DHT22;17110;52.602;12.998;2022-08-01T05:00:03;20.00;99.90
30300;DHT22;17110;52.602;12.998;2022-08-01T05:02:29;20.00;99.90
30300;DHT22;17110;52.602;12.998;2022-08-01T05:04:55;20.10;99.90
30300;DHT22;17110;52.602;12.998;2022-08-01T05:07:21;20.10;99.90
30300;DHT22;17110;52.602;12.998;2022-08-01T05:09:47;20.10;99.90
30300;DHT22;17110;52.602;12.998;2022-08-01T05:12:12;20.10;99.90
30300;DHT22;17110;52.602;12.998;2022-08-01T05:14:39;20.20;99.90
30300;DHT22;17110;52.602;12.998;2022-08-01T05:17:06;20.20;99.90
30300;DHT22;17110;52.602;12.998;2022-08-01T05:19:39;20.20;99.90
30300;DHT22;17110;52.602;12.998;2022-08-01T05:22:07;20.30;99.90
30300;DHT22;17110;52.602;12.998;2022-08-01T05:24:39;20.30;99.90
30300;DHT22;17110;52.602;12.998;2022-08-01T05:27:05;20.40;99.90
30300;DHT22;17110;52.602;12.998;2022-08-01T05:29:33;20.40;99.90
30300;DHT22;17110;52.602;12.998;2022-08-01T05:31:59;20.50;99.90
30300;DHT22;17110;52.602;12.998;2022-08-01T05:34:26;20.60;99.90
30300;DHT22;17110;52.602;12.998;2022-08-01T05:36:53;20.60;99.90
30300;DHT22;17110;52.602;12.998;2022-08-01T05:39:18;20.60;99.90
30300;DHT22;17110;52.602;12.998;2022-08-01T05:41:44;20.60;99.90
30300;DHT22;17110;52.602;12.998;2022-08-01T05:44:13;20.70;99.90
30300;DHT22;17110;52.602;12.998;2022-08-01T05:46:41;20.80;99.90
30300;DHT22;17110;52.602;12.998;2022-08-01T05:49:07;21.00;99.90
30300;DHT22;17110;52.602;12.998;2022-08-01T05:51:35;21.00;99.90
30300;DHT22;17110;52.602;12.998;2022-08-01T05:54:00;21.00;99.90
30300;DHT22;17110;52.602;12.998;2022-08-01T05:56:26;20.90;99.90
30300;DHT22;17110;52.602;12.998;2022-08-01T05:58:52;20.80;99.90
30300;DHT22;17110;52.602;12.998;2022-08-01T06:01:18;20.80;99.90
30300;DHT22;17110;52.602;12.998;2022-08-01T06:03:44;20.80;99.90
30300;DHT22;17110;52.602;12.998;2022-08-01T06:06:13;20.80;99.90
30300;DHT22;17110;52.602;12.998;2022-08-01T06:08:42;20.90;99.90
30300;DHT22;17110;52.602;12.998;2022-08-01T06:11:07;20.90;99.90
30300;DHT22;17110;52.602;12.998;2022-08-01T06:13:33;21.00;99.90
30300;DHT22;17110;52.602;12.998;2022-08-01T06:15:59;21.00;99.90
30300;DHT22;17110;52.602;12.998;2022-08-01T06:18:24;21.00;99.90
30300;DHT22;17110;52.602;12.998;2022-08-01T06:20:50;21.00;99.90
30300;DHT22;17110;52.602;12.998;2022-08-01T06:23:16;21.20;99.90
30300;DHT22;17110;52.602;12.998;2022-08-01T06:25:43;21.50;99.90
30300;DHT22;17110;52.602;12.998;2022-08-01T06:28:11;21.60;99.90
30300;DHT22;17110;52.602;12.998;2022-08-01T06:30:36;21.70;99.90
30300;DHT22;17110;52.602;12.998;2022-08-01T06:33:05;21.90;99.90
30300;DHT22;17110;52.602;12.998;2022-08-01T06:35:33;22.00;99.90
30300;DHT22;17110;52.602;12.998;2022-08-01T06:37:59;22.10;99.90
30300;DHT22;17110;52.602;12.998;2022-08-01T06:40:25;22.20;99.90
30300;DHT22;17110;52.602;12.998;2022-08-01T06:42:57;22.60;99.90
30300;DHT22;17110;52.602;12.998;2022-08-01T06:45:25;22.70;99.90
30300;DHT22;17110;52.602;12.998;2022-08-01T06:47:52;23.00;99.90
30300;DHT22;17110;52.602;12.998;2022-08-01T06:50:18;23.30;99.90
30300;DHT22;17110;52.602;12.998;2022-08-01T06:52:44;23.50;99.90
30300;DHT22;17110;52.602;12.998;2022-08-01T06:55:13;23.30;99.90
30300;DHT22;17110;52.602;12.998;2022-08-01T06:57:50;22.90;99.90
30300;DHT22;17110;52.602;12.998;2022-08-01T07:00:17;22.60;99.90
30300;DHT22;17110;52.602;12.998;2022-08-01T07:02:46;22.30;99.90
30300;DHT22;17110;52.602;12.998;2022-08-01T07:05:12;22.00;99.90
30300;DHT22;17110;52.602;12.998;2022-08-01T07:07:38;21.70;99.90
30300;DHT22;17110;52.602;12.998;2022-08-01T07:10:04;21.60;99.90
30300;DHT22;17110;52.602;12.998;2022-08-01T07:12:30;21.50;99.90
30300;DHT22;17110;52.602;12.998;2022-08-01T07:14:59;21.40;99.90
30300;DHT22;17110;52.602;12.998;2022-08-01T07:17:25;21.50;99.90
30300;DHT22;17110;52.602;12.998;2022-08-01T07:19:50;21.90;99.90
30300;DHT22;17110;52.602;12.998;2022-08-01T07:22:16;22.30;99.90
30300;DHT22;17110;52.602;12.998;2022-08-01T07:24:42;22.60;99.90
30300;DHT22;17110;52.602;12.998;2022-08-01T07:27:08;22.90;99.90
30300;DHT22;17110;52.602;12.998;2022-08-01T07:29:33;22.80;99.90
30300;DHT22;17110;52.602;12.998;2022-08-01T07:32:00;22.80;99.90
30300;DHT22;17110;52.602;12.998;2022-08-01T07:34:26;22.80;99.90
30300;DHT22;17110;52.602;12.998;2022-08-01T07:36:52;22.60;99.90
30300;DHT22;17110;52.602;12.998;2022-08-01T07:39:21;22.50;99.90
30300;DHT22;17110;52.602;12.998;2022-08-01T07:41:47;22.70;99.90
30300;DHT22;17110;52.602;12.998;2022-08-01T07:44:13;22.90;99.90
30300;DHT22;17110;52.602;12.998;2022-08-01T07:46:39;23.20;99.90
30300;DHT22;17110;52.602;12.998;2022-08-01T07:49:10;23.40;99.90
30300;DHT22;17110;52.602;12.998;2022-08-01T07:51:36;23.30;99.90
30300;DHT22;17110;52.602;12.998;2022-08-01T07:54:02;23.30;99.90
30300;DHT22;17110;52.602;12.998;2022-08-01T07:56:36;23.40;99.90
30300;DHT22;17110;52.602;12.998;2022-08-01T07:59:02;23.50;99.90
30300;DHT22;17110;52.602;12.998;2022-08-01T08:01:28;23.60;99.90
30300;DHT22;17110;52.602;12.998;2022-08-01T08:03:57;23.60;99.90
30300;DHT22;17110;52.602;12.998;2022-08-01T08:06:22;23.60;99.90
30300;DHT22;17110;52.602;12.998;2022-08-01T08:08:51;23.70;99.90
30300;DHT22;17110;52.602;12.998;2022-08-01T08:11:20;24.20;99.90
30300;DHT22;17110;52.602;12.998;2022-08-01T08:13:46;24.60;99.90
30300;DHT22;17110;52.602;12.998;2022-08-01T08:16:11;24.80;99.90
30300;DHT22;17110;52.602;12.998;2022-08-01T08:18:37;24.80;99.90
30300;DHT22;17110;52.602;12.998;2022-08-01T08:21:03;24.60;99.90
30300;DHT22;17110;52.602;12.998;2022-08-01T08:23:29;24.40;99.90
30300;DHT22;17110;52.602;12.998;2022-08-01T08:26:13;24.20;99.90
30300;DHT22;17110;52.602;12.998;2022-08-01T08:28:39;23.80;99.90
30300;DHT22;17110;52.602;12.998;2022-08-01T08:31:05;23.60;99.90
30300;DHT22;17110;52.602;12.998;2022-08-01T08:33:31;23.50;99.90
30300;DHT22;17110;52.602;12.998;2022-08-01T08:35:57;23.30;99.90
30300;DHT22;17110;52.602;12.998;2022-08-01T08:38:22;23.20;99.90
30300;DHT22;17110;52.602;12.998;2022-08-01T08:40:51;23.10;99.90
30300;DHT22;17110;52.602;12.998;2022-08-01T08:43:17;23.00;99.90
30300;DHT22;17110;52.602;12.998;2022-08-01T08:45:46;23.00;99.90
30300;DHT22;17110;52.602;12.998;2022-08-01T08:48:16;23.10;99.90
30300;DHT22;17110;52.602;12.998;2022-08-01T08:50:43;23.10;99.90
30300;DHT22;17110;52.602;12.998;2022-08-01T08:53:13;23.10;99.90
30300;DHT22;17110;52.602;12.998;2022-08-01T08:55:43;23.20;99.90
30300;DHT22;17110;52.602;12.998;2022-08-01T08:58:12;23.40;99.90
30300;DHT22;17110;52.602;12.998;2022-08-01T09:00:44;23.60;99.90
30300;DHT22;17110;52.602;12.998;2022-08-01T09:03:09;23.60;99.90
30300;DHT22;17110;52.602;12.998;2022-08-01T09:05:35;23.60;99.90
30300;DHT22;17110;52.602;12.998;2022-08-01T09:08:01;23.50;99.90
30300;DHT22;17110;52.602;12.998;2022-08-01T09:10:26;23.30;99.90
30300;DHT22;17110;52.602;12.998;2022-08-01T09:18:05;22.70;99.90
30300;DHT22;17110;52.602;12.998;2022-08-01T09:20:33;22.90;99.90
30300;DHT22;17110;52.602;12.998;2022-08-01T09:23:03;22.90;99.90
30300;DHT22;17110;52.602;12.998;2022-08-01T09:25:29;22.90;99.90
30300;DHT22;17110;52.602;12.998;2022-08-01T09:28:06;22.80;99.90
30300;DHT22;17110;52.602;12.998;2022-08-01T09:30:38;22.80;99.90
30300;DHT22;17110;52.602;12.998;2022-08-01T09:33:05;22.90;99.90
30300;DHT22;17110;52.602;12.998;2022-08-01T09:35:33;22.90;99.90
30300;DHT22;17110;52.602;12.998;2022-08-01T09:38:19;23.00;99.90
30300;DHT22;17110;52.602;12.998;2022-08-01T09:40:58;23.30;99.90
30300;DHT22;17110;52.602;12.998;2022-08-01T09:43:28;23.60;99.90
30300;DHT22;17110;52.602;12.998;2022-08-01T09:45:55;24.00;99.90
30300;DHT22;17110;52.602;12.998;2022-08-01T09:48:22;24.20;99.90
30300;DHT22;17110;52.602;12.998;2022-08-01T09:50:52;24.50;99.90
30300;DHT22;17110;52.602;12.998;2022-08-01T09:53:19;24.60;99.90
30300;DHT22;17110;52.602;12.998;2022-08-01T09:55:44;24.40;99.90
30300;DHT22;17110;52.602;12.998;2022-08-01T09:58:10;24.40;99.90
30300;DHT22;17110;52.602;12.998;2022-08-01T10:00:38;24.50;99.90
30300;DHT22;17110;52.602;12.998;2022-08-01T10:03:33;24.80;99.90
30300;DHT22;17110;52.602;12.998;2022-08-01T10:05:59;25.00;99.90
30300;DHT22;17110;52.602;12.998;2022-08-01T10:08:24;25.20;99.90
30300;DHT22;17110;52.602;12.998;2022-08-01T10:11:11;24.90;99.90
30300;DHT22;17110;52.602;12.998;2022-08-01T10:13:40;24.60;99.90
30300;DHT22;17110;52.602;12.998;2022-08-01T10:16:06;24.40;99.90
30300;DHT22;17110;52.602;12.998;2022-08-01T10:18:34;24.40;99.90
30300;DHT22;17110;52.602;12.998;2022-08-01T10:21:04;24.20;99.90
30300;DHT22;17110;52.602;12.998;2022-08-01T10:23:37;24.50;99.90
30300;DHT22;17110;52.602;12.998;2022-08-01T10:26:05;24.80;99.90
30300;DHT22;17110;52.602;12.998;2022-08-01T10:28:35;24.90;99.90
30300;DHT22;17110;52.602;12.998;2022-08-01T10:31:02;24.70;99.90
30300;DHT22;17110;52.602;12.998;2022-08-01T10:33:29;24.60;99.90
30300;DHT22;17110;52.602;12.998;2022-08-01T10:35:56;24.30;99.90
30300;DHT22;17110;52.602;12.998;2022-08-01T10:38:22;24.20;99.90
30300;DHT22;17110;52.602;12.998;2022-08-01T10:40:51;24.10;99.90
30300;DHT22;17110;52.602;12.998;2022-08-01T10:43:21;23.90;99.90
30300;DHT22;17110;52.602;12.998;2022-08-01T10:45:50;23.60;99.90
30300;DHT22;17110;52.602;12.998;2022-08-01T10:48:22;23.40;99.90
30300;DHT22;17110;52.602;12.998;2022-08-01T10:50:52;23.30;99.90
30300;DHT22;17110;52.602;12.998;2022-08-01T10:53:24;23.30;99.90
30300;DHT22;17110;52.602;12.998;2022-08-01T10:58:24;22.80;99.90
30300;DHT22;17110;52.602;12.998;2022-08-01T11:01:18;22.70;99.90
30300;DHT22;17110;52.602;12.998;2022-08-01T11:04:10;22.80;99.90
30300;DHT22;17110;52.602;12.998;2022-08-01T11:06:40;23.00;99.90
30300;DHT22;17110;52.602;12.998;2022-08-01T11:12:13;23.20;99.90
30300;DHT22;17110;52.602;12.998;2022-08-01T11:17:43;23.20;99.90
30300;DHT22;17110;52.602;12.998;2022-08-01T11:20:33;22.90;99.90
30300;DHT22;17110;52.602;12.998;2022-08-01T11:30:46;22.90;99.90
30300;DHT22;17110;52.602;12.998;2022-08-01T11:38:49;23.60;99.90
30300;DHT22;17110;52.602;12.998;2022-08-01T11:41:36;23.90;99.90
30300;DHT22;17110;52.602;12.998;2022-08-01T11:44:17;24.50;99.90
30300;DHT22;17110;52.602;12.998;2022-08-01T11:46:48;25.00;99.90
30300;DHT22;17110;52.602;12.998;2022-08-01T11:52:24;25.60;99.90
30300;DHT22;17110;52.602;12.998;2022-08-01T11:55:05;26.00;99.90
30300;DHT22;17110;52.602;12.998;2022-08-01T11:57:41;26.10;99.90
30300;DHT22;17110;52.602;12.998;2022-08-01T12:00:13;26.30;99.90
30300;DHT22;17110;52.602;12.998;2022-08-01T12:02:39;26.50;99.90
30300;DHT22;17110;52.602;12.998;2022-08-01T12:05:15;26.40;99.90
30300;DHT22;17110;52.602;12.998;2022-08-01T12:07:44;26.40;99.90
30300;DHT22;17110;52.602;12.998;2022-08-01T12:10:25;26.50;99.90
30300;DHT22;17110;52.602;12.998;2022-08-01T12:12:58;26.60;99.90
30300;DHT22;17110;52.602;12.998;2022-08-01T12:15:30;26.60;99.90
30300;DHT22;17110;52.602;12.998;2022-08-01T12:18:01;26.60;99.90
30300;DHT22;17110;52.602;12.998;2022-08-01T12:20:29;26.40;99.90
30300;DHT22;17110;52.602;12.998;2022-08-01T12:23:09;26.20;99.90
30300;DHT22;17110;52.602;12.998;2022-08-01T12:25:42;25.90;99.90
30300;DHT22;17110;52.602;12.998;2022-08-01T12:28:11;25.70;99.90
30300;DHT22;17110;52.602;12.998;2022-08-01T12:30:41;25.30;99.90
30300;DHT22;17110;52.602;12.998;2022-08-01T12:33:10;25.20;99.90
30300;DHT22;17110;52.602;12.998;2022-08-01T12:35:42;25.10;99.90
30300;DHT22;17110;52.602;12.998;2022-08-01T12:38:15;25.10;99.90
30300;DHT22;17110;52.602;12.998;2022-08-01T12:40:44;25.00;99.90
30300;DHT22;17110;52.602;12.998;2022-08-01T12:43:22;25.00;99.90
30300;DHT22;17110;52.602;12.998;2022-08-01T12:45:51;25.00;99.90
30300;DHT22;17110;52.602;12.998;2022-08-01T12:48:24;25.40;99.90
30300;DHT22;17110;52.602;12.998;2022-08-01T12:50:52;25.80;99.90
30300;DHT22;17110;52.602;12.998;2022-08-01T12:53:20;26.00;99.90
30300;DHT22;17110;52.602;12.998;2022-08-01T12:55:49;26.10;99.90
30300;DHT22;17110;52.602;12.998;2022-08-01T12:58:16;25.90;99.90
30300;DHT22;17110;52.602;12.998;2022-08-01T13:00:45;26.10;99.90
30300;DHT22;17110;52.602;12.998;2022-08-01T13:03:17;26.20;99.90
30300;DHT22;17110;52.602;12.998;2022-08-01T13:05:48;26.40;99.90
30300;DHT22;17110;52.602;12.998;2022-08-01T13:08:19;26.40;99.90
30300;DHT22;17110;52.602;12.998;2022-08-01T13:10:46;26.20;99.90
30300;DHT22;17110;52.602;12.998;2022-08-01T13:13:13;26.00;99.90
30300;DHT22;17110;52.602;12.998;2022-08-01T13:15:41;25.90;99.90
30300;DHT22;17110;52.602;12.998;2022-08-01T13:18:29;25.80;99.90
30300;DHT22;17110;52.602;12.998;2022-08-01T13:21:15;25.70;99.90
30300;DHT22;17110;52.602;12.998;2022-08-01T13:26:55;25.20;99.90
30300;DHT22;17110;52.602;12.998;2022-08-01T13:29:32;25.20;99.90
30300;DHT22;17110;52.602;12.998;2022-08-01T13:32:15;25.00;99.90
30300;DHT22;17110;52.602;12.998;2022-08-01T13:34:40;25.10;99.90
30300;DHT22;17110;52.602;12.998;2022-08-01T13:37:06;25.30;99.90
30300;DHT22;17110;52.602;12.998;2022-08-01T13:39:32;25.40;99.90
30300;DHT22;17110;52.602;12.998;2022-08-01T13:42:15;25.50;99.90
30300;DHT22;17110;52.602;12.998;2022-08-01T13:44:43;25.60;99.90
30300;DHT22;17110;52.602;12.998;2022-08-01T13:47:12;25.60;99.90
30300;DHT22;17110;52.602;12.998;2022-08-01T13:49:37;25.70;99.90
30300;DHT22;17110;52.602;12.998;2022-08-01T13:52:03;25.60;99.90
30300;DHT22;17110;52.602;12.998;2022-08-01T13:54:31;25.50;99.90
30300;DHT22;17110;52.602;12.998;2022-08-01T13:56:58;25.60;99.90
30300;DHT22;17110;52.602;12.998;2022-08-01T13:59:24;25.80;99.90
30300;DHT22;17110;52.602;12.998;2022-08-01T14:01:49;26.10;99.90
30300;DHT22;17110;52.602;12.998;2022-08-01T14:04:15;26.30;99.90
30300;DHT22;17110;52.602;12.998;2022-08-01T14:06:41;26.40;99.90
30300;DHT22;17110;52.602;12.998;2022-08-01T14:09:07;26.30;99.90
30300;DHT22;17110;52.602;12.998;2022-08-01T14:11:33;26.40;99.90
30300;DHT22;17110;52.602;12.998;2022-08-01T14:13:58;26.60;99.90
30300;DHT22;17110;52.602;12.998;2022-08-01T14:16:24;26.50;99.90
30300;DHT22;17110;52.602;12.998;2022-08-01T14:18:52;26.50;99.90
30300;DHT22;17110;52.602;12.998;2022-08-01T14:21:18;26.10;99.90
30300;DHT22;17110;52.602;12.998;2022-08-01T14:23:44;25.90;99.90
30300;DHT22;17110;52.602;12.998;2022-08-01T14:26:10;25.70;99.90
30300;DHT22;17110;52.602;12.998;2022-08-01T14:28:37;25.40;99.90
30300;DHT22;17110;52.602;12.998;2022-08-01T14:31:03;25.00;99.90
30300;DHT22;17110;52.602;12.998;2022-08-01T14:33:37;24.60;99.90
30300;DHT22;17110;52.602;12.998;2022-08-01T14:36:03;24.40;99.90
30300;DHT22;17110;52.602;12.998;2022-08-01T14:38:29;24.40;99.90
30300;DHT22;17110;52.602;12.998;2022-08-01T14:40:55;24.50;99.90
30300;DHT22;17110;52.602;12.998;2022-08-01T14:43:21;24.60;99.90
30300;DHT22;17110;52.602;12.998;2022-08-01T14:45:47;24.70;99.90
30300;DHT22;17110;52.602;12.998;2022-08-01T14:48:18;24.90;99.90
30300;DHT22;17110;52.602;12.998;2022-08-01T14:50:44;25.10;99.90
30300;DHT22;17110;52.602;12.998;2022-08-01T14:53:09;25.10;99.90
30300;DHT22;17110;52.602;12.998;2022-08-01T14:55:35;25.20;99.90
30300;DHT22;17110;52.602;12.998;2022-08-01T14:58:01;25.20;99.90
30300;DHT22;17110;52.602;12.998;2022-08-01T15:00:27;25.20;99.90
30300;DHT22;17110;52.602;12.998;2022-08-01T15:02:52;25.20;99.90
30300;DHT22;17110;52.602;12.998;2022-08-01T15:05:21;25.30;99.90
30300;DHT22;17110;52.602;12.998;2022-08-01T15:07:46;25.30;99.90
30300;DHT22;17110;52.602;12.998;2022-08-01T15:10:16;25.10;99.90
30300;DHT22;17110;52.602;12.998;2022-08-01T15:12:42;25.00;99.90
30300;DHT22;17110;52.602;12.998;2022-08-01T15:15:09;24.90;99.90
30300;DHT22;17110;52.602;12.998;2022-08-01T15:17:35;25.00;99.90
30300;DHT22;17110;52.602;12.998;2022-08-01T15:20:04;24.90;99.90
30300;DHT22;17110;52.602;12.998;2022-08-01T15:22:31;24.80;99.90
30300;DHT22;17110;52.602;12.998;2022-08-01T15:24:59;24.70;99.90
30300;DHT22;17110;52.602;12.998;2022-08-01T15:27:27;24.50;99.90
30300;DHT22;17110;52.602;12.998;2022-08-01T15:29:53;24.40;99.90
30300;DHT22;17110;52.602;12.998;2022-08-01T15:32:22;24.40;99.90
30300;DHT22;17110;52.602;12.998;2022-08-01T15:34:49;24.30;99.90
30300;DHT22;17110;52.602;12.998;2022-08-01T15:37:14;24.30;99.90
30300;DHT22;17110;52.602;12.998;2022-08-01T15:39:41;24.50;99.90
30300;DHT22;17110;52.602;12.998;2022-08-01T15:42:10;24.70;99.90
30300;DHT22;17110;52.602;12.998;2022-08-01T15:44:37;24.70;99.90
30300;DHT22;17110;52.602;12.998;2022-08-01T15:47:03;24.90;99.90
30300;DHT22;17110;52.602;12.998;2022-08-01T15:49:29;25.10;99.90
30300;DHT22;17110;52.602;12.998;2022-08-01T15:51:55;25.10;99.90
30300;DHT22;17110;52.602;12.998;2022-08-01T15:54:21;25.10;99.90
30300;DHT22;17110;52.602;12.998;2022-08-01T15:56:47;25.00;99.90
30300;DHT22;17110;52.602;12.998;2022-08-01T15:59:13;25.10;99.90
30300;DHT22;17110;52.602;12.998;2022-08-01T16:01:39;25.20;99.90
30300;DHT22;17110;52.602;12.998;2022-08-01T16:04:06;25.30;99.90
30300;DHT22;17110;52.602;12.998;2022-08-01T16:06:33;25.40;99.90
30300;DHT22;17110;52.602;12.998;2022-08-01T16:08:59;25.50;99.90